sensor_id;sensor_type;location;lat;lon;timestamp;pressure;altitude;pressure_sealevel;temperature;humidity
50268;BME280;36153;50.960;6.220;2022-07-04T00:01:46;101042.53;;;18.48;52.05
50268;BME280;36153;50.960;6.220;2022-07-04T00:04:47;101039.03;;;18.49;51.90
50268;BME280;36153;50.960;6.220;2022-07-04T00:07:48;101035.50;;;18.50;51.81
50268;BME280;36153;50.960;6.220;2022-07-04T00:10:49;101040.81;;;18.47;52.10
50268;BME280;36153;50.960;6.220;2022-07-04T00:13:49;101039.09;;;18.45;51.93
50268;BME280;36153;50.960;6.220;2022-07-04T00:16:50;101037.31;;;18.45;51.87
50268;BME280;36153;50.960;6.220;2022-07-04T00:19:50;101034.81;;;18.36;52.13
50268;BME280;36153;50.960;6.220;2022-07-04T00:22:51;101032.31;;;18.25;52.53
50268;BME280;36153;50.960;6.220;2022-07-04T00:25:51;101026.31;;;18.11;52.70
50268;BME280;36153;50.960;6.220;2022-07-04T00:28:51;101034.16;;;18.15;52.56
50268;BME280;36153;50.960;6.220;2022-07-04T00:31:52;101029.00;;;18.06;52.99
50268;BME280;36153;50.960;6.220;2022-07-04T00:34:52;101026.28;;;18.14;52.70
50268;BME280;36153;50.960;6.220;2022-07-04T00:37:52;101022.75;;;18.13;52.70
50268;BME280;36153;50.960;6.220;2022-07-04T00:40:53;101021.06;;;18.09;52.91
50268;BME280;36153;50.960;6.220;2022-07-04T00:44:07;101019.41;;;18.00;52.94
50268;BME280;36153;50.960;6.220;2022-07-04T00:47:08;101011.47;;;18.02;53.09
50268;BME280;36153;50.960;6.220;2022-07-04T00:50:08;101002.81;;;17.89;53.31
50268;BME280;36153;50.960;6.220;2022-07-04T00:53:09;101004.72;;;17.76;53.72
50268;BME280;36153;50.960;6.220;2022-07-04T00:56:09;101008.22;;;17.75;53.85
50268;BME280;36153;50.960;6.220;2022-07-04T00:59:11;101012.56;;;17.81;53.28
50268;BME280;36153;50.960;6.220;2022-07-04T01:02:11;101006.47;;;17.74;53.60
50268;BME280;36153;50.960;6.220;2022-07-04T01:05:13;101012.50;;;17.88;53.37
50268;BME280;36153;50.960;6.220;2022-07-04T01:08:14;101006.31;;;17.88;53.32
50268;BME280;36153;50.960;6.220;2022-07-04T01:11:16;101007.41;;;17.68;53.61
50268;BME280;36153;50.960;6.220;2022-07-04T01:14:17;101008.16;;;17.80;53.69
50268;BME280;36153;50.960;6.220;2022-07-04T01:17:17;101008.97;;;17.93;53.19
50268;BME280;36153;50.960;6.220;2022-07-04T01:20:18;101012.47;;;17.93;52.95
50268;BME280;36153;50.960;6.220;2022-07-04T01:23:18;101013.28;;;17.97;52.83
50268;BME280;36153;50.960;6.220;2022-07-04T01:26:19;101006.25;;;17.99;52.86
50268;BME280;36153;50.960;6.220;2022-07-04T01:29:20;101007.09;;;18.01;52.58
50268;BME280;36153;50.960;6.220;2022-07-04T01:32:21;101007.19;;;17.95;52.78
50268;BME280;36153;50.960;6.220;2022-07-04T01:35:22;101007.19;;;17.93;52.91
50268;BME280;36153;50.960;6.220;2022-07-04T01:38:22;101002.78;;;17.90;52.89
50268;BME280;36153;50.960;6.220;2022-07-04T01:41:23;101005.59;;;17.75;53.21
50268;BME280;36153;50.960;6.220;2022-07-04T01:44:24;101007.50;;;17.59;53.55
50268;BME280;36153;50.960;6.220;2022-07-04T01:47:24;101001.38;;;17.57;53.87
50268;BME280;36153;50.960;6.220;2022-07-04T01:50:24;101012.72;;;17.65;53.43
50268;BME280;36153;50.960;6.220;2022-07-04T01:53:25;101003.03;;;17.66;53.42
50268;BME280;36153;50.960;6.220;2022-07-04T01:56:26;101008.41;;;17.53;53.73
50268;BME280;36153;50.960;6.220;2022-07-04T01:59:26;101009.44;;;17.38;53.56
50268;BME280;36153;50.960;6.220;2022-07-04T02:02:49;101012.22;;;17.18;54.17
50268;BME280;36153;50.960;6.220;2022-07-04T02:05:50;101010.50;;;17.14;54.10
50268;BME280;36153;50.960;6.220;2022-07-04T02:08:51;101016.59;;;17.22;54.13
50268;BME280;36153;50.960;6.220;2022-07-04T02:12:10;101016.56;;;17.27;54.16
50268;BME280;36153;50.960;6.220;2022-07-04T02:15:30;101022.81;;;17.08;54.55
50268;BME280;36153;50.960;6.220;2022-07-04T02:18:31;101025.47;;;17.06;54.16
50268;BME280;36153;50.960;6.220;2022-07-04T02:21:31;101029.91;;;16.98;54.77
50268;BME280;36153;50.960;6.220;2022-07-04T02:24:32;101025.50;;;17.01;54.80
50268;BME280;36153;50.960;6.220;2022-07-04T02:27:32;101027.28;;;16.99;54.86
50268;BME280;36153;50.960;6.220;2022-07-04T02:30:32;101022.75;;;17.18;54.41
50268;BME280;36153;50.960;6.220;2022-07-04T02:33:33;101024.66;;;16.95;54.93
50268;BME280;36153;50.960;6.220;2022-07-04T02:36:33;101036.91;;;17.00;54.78
50268;BME280;36153;50.960;6.220;2022-07-04T02:39:34;101039.63;;;16.91;54.94
50268;BME280;36153;50.960;6.220;2022-07-04T02:42:35;101037.91;;;16.75;55.22
50268;BME280;36153;50.960;6.220;2022-07-04T02:45:36;101038.78;;;16.75;55.62
50268;BME280;36153;50.960;6.220;2022-07-04T02:48:36;101037.94;;;16.73;56.08
50268;BME280;36153;50.960;6.220;2022-07-04T02:51:37;101043.97;;;16.87;55.66
50268;BME280;36153;50.960;6.220;2022-07-04T02:54:37;101056.19;;;16.98;55.59
50268;BME280;36153;50.960;6.220;2022-07-04T02:57:38;101050.09;;;16.96;55.24
50268;BME280;36153;50.960;6.220;2022-07-04T03:00:38;101059.75;;;16.92;55.13
50268;BME280;36153;50.960;6.220;2022-07-04T03:03:39;101062.41;;;16.89;55.51
50268;BME280;36153;50.960;6.220;2022-07-04T03:06:39;101065.00;;;16.94;55.24
50268;BME280;36153;50.960;6.220;2022-07-04T03:09:40;101063.25;;;16.96;55.41
50268;BME280;36153;50.960;6.220;2022-07-04T03:12:40;101068.53;;;16.93;55.24
50268;BME280;36153;50.960;6.220;2022-07-04T03:15:40;101066.84;;;16.73;55.96
50268;BME280;36153;50.960;6.220;2022-07-04T03:18:41;101067.69;;;16.75;55.82
50268;BME280;36153;50.960;6.220;2022-07-04T03:21:41;101074.72;;;16.75;55.73
50268;BME280;36153;50.960;6.220;2022-07-04T03:24:42;101084.34;;;16.77;56.07
50268;BME280;36153;50.960;6.220;2022-07-04T03:27:42;101082.56;;;16.92;55.64
50268;BME280;36153;50.960;6.220;2022-07-04T03:30:43;101078.97;;;17.02;55.42
50268;BME280;36153;50.960;6.220;2022-07-04T03:33:43;101079.88;;;16.98;55.56
50268;BME280;36153;50.960;6.220;2022-07-04T03:36:43;101080.78;;;16.97;55.63
50268;BME280;36153;50.960;6.220;2022-07-04T03:39:44;101085.03;;;17.12;55.67
50268;BME280;36153;50.960;6.220;2022-07-04T03:42:44;101077.06;;;17.26;55.33
50268;BME280;36153;50.960;6.220;2022-07-04T03:45:45;101087.56;;;17.32;54.96
50268;BME280;36153;50.960;6.220;2022-07-04T03:48:45;101088.44;;;17.32;54.86
50268;BME280;36153;50.960;6.220;2022-07-04T03:51:46;101083.16;;;17.32;55.06
50268;BME280;36153;50.960;6.220;2022-07-04T03:54:46;101086.63;;;17.39;55.23
50268;BME280;36153;50.960;6.220;2022-07-04T03:57:46;101083.16;;;17.34;55.20
50268;BME280;36153;50.960;6.220;2022-07-04T04:00:47;101079.56;;;17.47;54.70
50268;BME280;36153;50.960;6.220;2022-07-04T04:03:47;101087.50;;;17.43;54.97
50268;BME280;36153;50.960;6.220;2022-07-04T04:07:06;101086.63;;;17.40;54.99
50268;BME280;36153;50.960;6.220;2022-07-04T04:10:07;101079.59;;;17.39;55.17
50268;BME280;36153;50.960;6.220;2022-07-04T04:13:07;101080.50;;;17.40;55.36
50268;BME280;36153;50.960;6.220;2022-07-04T04:16:08;101082.09;;;17.60;54.70
50268;BME280;36153;50.960;6.220;2022-07-04T04:19:09;101080.31;;;17.62;54.78
50268;BME280;36153;50.960;6.220;2022-07-04T04:22:10;101083.72;;;17.73;54.33
50268;BME280;36153;50.960;6.220;2022-07-04T04:25:10;101091.84;;;17.48;54.96
50268;BME280;36153;50.960;6.220;2022-07-04T04:28:10;101086.59;;;17.44;55.33
50268;BME280;36153;50.960;6.220;2022-07-04T04:31:11;101090.94;;;17.51;55.47
50268;BME280;36153;50.960;6.220;2022-07-04T04:34:11;101080.16;;;17.82;54.91
50268;BME280;36153;50.960;6.220;2022-07-04T04:37:11;101097.53;;;18.01;54.04
50268;BME280;36153;50.960;6.220;2022-07-04T04:40:12;101095.69;;;18.11;54.12
50268;BME280;36153;50.960;6.220;2022-07-04T04:43:12;101098.28;;;18.14;54.15
50268;BME280;36153;50.960;6.220;2022-07-04T04:46:12;101096.69;;;17.98;54.49
50268;BME280;36153;50.960;6.220;2022-07-04T04:49:13;101097.56;;;17.97;54.72
50268;BME280;36153;50.960;6.220;2022-07-04T04:52:14;101088.38;;;18.36;54.01
50268;BME280;36153;50.960;6.220;2022-07-04T04:55:14;101099.63;;;18.52;53.66
50268;BME280;36153;50.960;6.220;2022-07-04T04:58:14;101097.88;;;18.51;53.58
50268;BME280;36153;50.960;6.220;2022-07-04T05:01:15;101093.41;;;18.59;53.98
50268;BME280;36153;50.960;6.220;2022-07-04T05:04:15;101099.41;;;18.71;53.57
50268;BME280;36153;50.960;6.220;2022-07-04T05:07:16;101101.84;;;18.86;53.64
50268;BME280;36153;50.960;6.220;2022-07-04T05:10:16;101096.63;;;18.83;53.91
50268;BME280;36153;50.960;6.220;2022-07-04T05:13:17;101095.63;;;18.92;54.11
50268;BME280;36153;50.960;6.220;2022-07-04T05:16:17;101097.06;;;19.15;53.46
50268;BME280;36153;50.960;6.220;2022-07-04T05:19:18;101102.22;;;19.24;53.50
50268;BME280;36153;50.960;6.220;2022-07-04T05:22:18;101110.84;;;19.35;53.54
50268;BME280;36153;50.960;6.220;2022-07-04T05:25:18;101115.09;;;19.45;53.13
50268;BME280;36153;50.960;6.220;2022-07-04T05:28:19;101115.72;;;19.61;52.85
50268;BME280;36153;50.960;6.220;2022-07-04T05:31:19;101112.81;;;19.80;52.58
50268;BME280;36153;50.960;6.220;2022-07-04T05:34:20;101112.66;;;19.89;51.87
50268;BME280;36153;50.960;6.220;2022-07-04T05:37:20;101115.81;;;20.10;51.63
50268;BME280;36153;50.960;6.220;2022-07-04T05:40:21;101120.03;;;20.20;50.61
50268;BME280;36153;50.960;6.220;2022-07-04T05:43:21;101113.63;;;20.34;50.44
50268;BME280;36153;50.960;6.220;2022-07-04T05:46:22;101110.34;;;20.19;50.41
50268;BME280;36153;50.960;6.220;2022-07-04T05:49:22;101106.56;;;20.33;50.64
50268;BME280;36153;50.960;6.220;2022-07-04T05:52:22;101100.09;;;20.49;50.24
50268;BME280;36153;50.960;6.220;2022-07-04T05:55:23;101098.53;;;20.83;50.03
50268;BME280;36153;50.960;6.220;2022-07-04T05:58:23;101090.41;;;20.92;49.92
50268;BME280;36153;50.960;6.220;2022-07-04T06:01:24;101084.94;;;21.00;49.37
50268;BME280;36153;50.960;6.220;2022-07-04T06:04:24;101086.47;;;21.10;49.58
50268;BME280;36153;50.960;6.220;2022-07-04T06:07:24;101083.72;;;21.14;48.88
50268;BME280;36153;50.960;6.220;2022-07-04T06:10:25;101080.59;;;21.35;48.17
50268;BME280;36153;50.960;6.220;2022-07-04T06:13:25;101077.88;;;21.36;47.83
50268;BME280;36153;50.960;6.220;2022-07-04T06:16:27;101083.47;;;21.63;47.90
50268;BME280;36153;50.960;6.220;2022-07-04T06:19:28;101085.81;;;21.74;47.62
50268;BME280;36153;50.960;6.220;2022-07-04T06:22:28;101089.63;;;21.63;48.00
50268;BME280;36153;50.960;6.220;2022-07-04T06:25:38;101085.28;;;21.95;47.18
50268;BME280;36153;50.960;6.220;2022-07-04T06:28:38;101087.88;;;21.97;46.97
50268;BME280;36153;50.960;6.220;2022-07-04T06:31:38;101090.44;;;22.00;46.07
50268;BME280;36153;50.960;6.220;2022-07-04T06:34:39;101093.06;;;22.02;45.58
50268;BME280;36153;50.960;6.220;2022-07-04T06:37:58;101096.25;;;22.14;45.84
50268;BME280;36153;50.960;6.220;2022-07-04T06:40:59;101090.78;;;22.21;45.79
50268;BME280;36153;50.960;6.220;2022-07-04T06:43:59;101091.47;;;22.27;45.23
50268;BME280;36153;50.960;6.220;2022-07-04T06:47:01;101085.69;;;22.46;45.10
50268;BME280;36153;50.960;6.220;2022-07-04T06:50:01;101090.53;;;22.61;45.03
50268;BME280;36153;50.960;6.220;2022-07-04T06:53:04;101097.59;;;22.62;44.22
50268;BME280;36153;50.960;6.220;2022-07-04T06:56:04;101104.44;;;22.70;43.61
50268;BME280;36153;50.960;6.220;2022-07-04T06:59:05;101098.13;;;23.04;42.54
50268;BME280;36153;50.960;6.220;2022-07-04T07:02:05;101099.56;;;23.15;43.87
50268;BME280;36153;50.960;6.220;2022-07-04T07:05:06;101095.06;;;22.88;43.07
50268;BME280;36153;50.960;6.220;2022-07-04T07:08:07;101098.22;;;23.00;42.92
50268;BME280;36153;50.960;6.220;2022-07-04T07:11:07;101100.75;;;23.33;42.30
50268;BME280;36153;50.960;6.220;2022-07-04T07:14:13;101106.19;;;23.30;41.63
50268;BME280;36153;50.960;6.220;2022-07-04T07:17:14;101104.81;;;23.45;42.11
50268;BME280;36153;50.960;6.220;2022-07-04T07:20:16;101099.41;;;23.48;41.70
50268;BME280;36153;50.960;6.220;2022-07-04T07:23:16;101091.66;;;23.41;42.10
50268;BME280;36153;50.960;6.220;2022-07-04T07:26:16;101093.91;;;23.53;42.21
50268;BME280;36153;50.960;6.220;2022-07-04T07:29:17;101099.69;;;23.66;40.20
50268;BME280;36153;50.960;6.220;2022-07-04T07:32:18;101085.94;;;23.80;41.43
50268;BME280;36153;50.960;6.220;2022-07-04T07:35:18;101088.78;;;24.00;41.31
50268;BME280;36153;50.960;6.220;2022-07-04T07:38:19;101078.03;;;24.03;40.77
50268;BME280;36153;50.960;6.220;2022-07-04T07:41:19;101089.94;;;24.18;40.97
50268;BME280;36153;50.960;6.220;2022-07-04T07:44:19;101088.19;;;24.17;40.98
50268;BME280;36153;50.960;6.220;2022-07-04T07:47:20;101088.28;;;24.40;40.56
50268;BME280;36153;50.960;6.220;2022-07-04T07:50:20;101094.94;;;24.28;39.69
50268;BME280;36153;50.960;6.220;2022-07-04T07:53:21;101091.03;;;24.13;40.49
50268;BME280;36153;50.960;6.220;2022-07-04T07:56:22;101090.59;;;24.49;40.05
50268;BME280;36153;50.960;6.220;2022-07-04T07:59:22;101095.19;;;24.69;39.15
50268;BME280;36153;50.960;6.220;2022-07-04T08:02:23;101095.75;;;24.79;37.86
50268;BME280;36153;50.960;6.220;2022-07-04T08:05:42;101095.94;;;24.96;36.92
50268;BME280;36153;50.960;6.220;2022-07-04T08:08:43;101099.09;;;25.06;36.94
50268;BME280;36153;50.960;6.220;2022-07-04T08:11:43;101107.78;;;25.11;36.69
50268;BME280;36153;50.960;6.220;2022-07-04T08:14:44;101112.50;;;25.27;37.19
50268;BME280;36153;50.960;6.220;2022-07-04T08:17:44;101109.53;;;25.12;37.14
50268;BME280;36153;50.960;6.220;2022-07-04T08:20:46;101106.53;;;25.20;36.19
50268;BME280;36153;50.960;6.220;2022-07-04T08:23:46;101105.19;;;25.32;36.15
50268;BME280;36153;50.960;6.220;2022-07-04T08:26:47;101088.72;;;25.44;35.42
50268;BME280;36153;50.960;6.220;2022-07-04T08:29:48;101088.66;;;25.66;37.09
50268;BME280;36153;50.960;6.220;2022-07-04T08:32:48;101092.22;;;26.10;36.30
50268;BME280;36153;50.960;6.220;2022-07-04T08:35:49;101085.19;;;26.07;34.69
50268;BME280;36153;50.960;6.220;2022-07-04T08:38:49;101090.16;;;25.94;34.53
50268;BME280;36153;50.960;6.220;2022-07-04T08:41:52;101091.03;;;25.95;34.72
50268;BME280;36153;50.960;6.220;2022-07-04T08:44:54;101089.09;;;25.98;35.24
50268;BME280;36153;50.960;6.220;2022-07-04T08:48:34;101097.03;;;26.20;35.30
50268;BME280;36153;50.960;6.220;2022-07-04T08:51:59;101096.81;;;26.06;35.16
50268;BME280;36153;50.960;6.220;2022-07-04T08:55:01;101092.66;;;26.19;33.50
50268;BME280;36153;50.960;6.220;2022-07-04T08:58:21;101092.22;;;26.10;33.20
50268;BME280;36153;50.960;6.220;2022-07-04T09:01:30;101086.63;;;26.35;34.15
50268;BME280;36153;50.960;6.220;2022-07-04T09:04:31;101086.78;;;26.51;32.93
50268;BME280;36153;50.960;6.220;2022-07-04T09:07:33;101094.72;;;26.33;33.91
50268;BME280;36153;50.960;6.220;2022-07-04T09:10:34;101087.28;;;26.80;32.96
50268;BME280;36153;50.960;6.220;2022-07-04T09:13:35;101089.56;;;27.43;31.13
50268;BME280;36153;50.960;6.220;2022-07-04T09:16:35;101097.56;;;26.87;30.52
50268;BME280;36153;50.960;6.220;2022-07-04T09:19:36;101087.28;;;26.80;33.09
50268;BME280;36153;50.960;6.220;2022-07-04T09:22:36;101079.13;;;27.73;32.12
50268;BME280;36153;50.960;6.220;2022-07-04T09:25:37;101081.72;;;27.75;31.80
50268;BME280;36153;50.960;6.220;2022-07-04T09:28:40;101084.47;;;27.91;31.07
50268;BME280;36153;50.960;6.220;2022-07-04T09:31:40;101082.28;;;27.47;31.26
50268;BME280;36153;50.960;6.220;2022-07-04T09:34:54;101076.47;;;27.91;30.62
50268;BME280;36153;50.960;6.220;2022-07-04T09:37:56;101077.16;;;28.12;30.64
50268;BME280;36153;50.960;6.220;2022-07-04T09:41:00;101079.63;;;27.99;30.30
50268;BME280;36153;50.960;6.220;2022-07-04T09:44:20;101075.31;;;28.64;30.25
50268;BME280;36153;50.960;6.220;2022-07-04T09:50:25;101074.56;;;28.44;29.91
50268;BME280;36153;50.960;6.220;2022-07-04T09:53:27;101077.91;;;28.65;28.51
50268;BME280;36153;50.960;6.220;2022-07-04T09:56:44;101074.28;;;28.66;29.98
50268;BME280;36153;50.960;6.220;2022-07-04T09:59:45;101066.13;;;29.32;29.09
50268;BME280;36153;50.960;6.220;2022-07-04T10:02:45;101068.38;;;29.07;30.54
50268;BME280;36153;50.960;6.220;2022-07-04T10:05:47;101067.59;;;29.37;28.87
50268;BME280;36153;50.960;6.220;2022-07-04T10:08:48;101069.22;;;28.60;30.12
50268;BME280;36153;50.960;6.220;2022-07-04T10:11:48;101062.78;;;27.80;30.76
50268;BME280;36153;50.960;6.220;2022-07-04T10:14:49;101077.44;;;28.23;29.56
50268;BME280;36153;50.960;6.220;2022-07-04T10:17:50;101065.16;;;28.53;29.48
50268;BME280;36153;50.960;6.220;2022-07-04T10:20:52;101076.88;;;29.62;28.71
50268;BME280;36153;50.960;6.220;2022-07-04T10:23:53;101075.41;;;29.26;27.74
50268;BME280;36153;50.960;6.220;2022-07-04T10:26:53;101062.25;;;29.05;29.11
50268;BME280;36153;50.960;6.220;2022-07-04T10:29:54;101068.59;;;28.05;29.11
50268;BME280;36153;50.960;6.220;2022-07-04T10:32:57;101060.72;;;27.85;28.86
50268;BME280;36153;50.960;6.220;2022-07-04T10:36:19;101059.38;;;28.60;28.96
50268;BME280;36153;50.960;6.220;2022-07-04T10:39:23;101055.72;;;28.46;29.12
50268;BME280;36153;50.960;6.220;2022-07-04T10:42:25;101051.97;;;29.14;28.07
50268;BME280;36153;50.960;6.220;2022-07-04T10:45:32;101045.13;;;29.99;27.37
50268;BME280;36153;50.960;6.220;2022-07-04T10:48:32;101041.97;;;31.06;25.68
50268;BME280;36153;50.960;6.220;2022-07-04T10:52:01;101051.28;;;30.16;26.97
50268;BME280;36153;50.960;6.220;2022-07-04T10:55:11;101032.81;;;29.66;27.85
50268;BME280;36153;50.960;6.220;2022-07-04T10:58:38;101037.16;;;29.38;27.89
50268;BME280;36153;50.960;6.220;2022-07-04T11:01:38;101032.72;;;29.68;28.78
50268;BME280;36153;50.960;6.220;2022-07-04T11:05:02;101026.16;;;30.17;27.50
50268;BME280;36153;50.960;6.220;2022-07-04T11:08:03;101018.00;;;30.18;27.15
50268;BME280;36153;50.960;6.220;2022-07-04T11:12:00;101024.81;;;30.53;26.78
50268;BME280;36153;50.960;6.220;2022-07-04T11:14:52;101023.00;;;30.10;27.61
50268;BME280;36153;50.960;6.220;2022-07-04T11:18:09;101015.41;;;30.31;26.36
50268;BME280;36153;50.960;6.220;2022-07-04T11:21:16;101010.25;;;31.11;25.71
50268;BME280;36153;50.960;6.220;2022-07-04T11:24:17;101007.66;;;31.37;26.47
50268;BME280;36153;50.960;6.220;2022-07-04T11:27:20;101018.13;;;31.14;26.49
50268;BME280;36153;50.960;6.220;2022-07-04T11:30:22;101012.47;;;31.45;27.13
50268;BME280;36153;50.960;6.220;2022-07-04T11:33:25;101015.28;;;31.03;26.32
50268;BME280;36153;50.960;6.220;2022-07-04T11:36:26;101012.94;;;31.11;24.86
50268;BME280;36153;50.960;6.220;2022-07-04T11:39:27;101014.59;;;30.99;25.90
50268;BME280;36153;50.960;6.220;2022-07-04T11:42:27;101012.41;;;30.92;25.48
50268;BME280;36153;50.960;6.220;2022-07-04T11:45:46;101016.31;;;29.72;27.36
50268;BME280;36153;50.960;6.220;2022-07-04T11:48:46;101003.63;;;30.05;27.56
50268;BME280;36153;50.960;6.220;2022-07-04T11:51:48;101001.06;;;30.74;25.91
50268;BME280;36153;50.960;6.220;2022-07-04T11:54:50;100999.06;;;29.92;23.60
50268;BME280;36153;50.960;6.220;2022-07-04T11:57:51;100999.47;;;29.70;25.86
50268;BME280;36153;50.960;6.220;2022-07-04T12:00:55;100998.50;;;31.53;22.91
50268;BME280;36153;50.960;6.220;2022-07-04T12:03:55;101005.00;;;31.76;23.17
50268;BME280;36153;50.960;6.220;2022-07-04T12:06:56;101005.00;;;31.10;24.97
50268;BME280;36153;50.960;6.220;2022-07-04T12:09:56;100999.25;;;31.55;23.68
50268;BME280;36153;50.960;6.220;2022-07-04T12:16:11;101003.13;;;30.41;26.38
50268;BME280;36153;50.960;6.220;2022-07-04T12:19:11;100995.47;;;30.21;26.61
50268;BME280;36153;50.960;6.220;2022-07-04T12:22:12;100988.47;;;30.74;26.40
50268;BME280;36153;50.960;6.220;2022-07-04T12:25:24;100981.50;;;32.04;24.48
50268;BME280;36153;50.960;6.220;2022-07-04T12:28:34;100988.38;;;32.21;22.87
50268;BME280;36153;50.960;6.220;2022-07-04T12:31:42;100994.97;;;32.04;24.65
50268;BME280;36153;50.960;6.220;2022-07-04T12:34:44;100992.59;;;32.25;24.32
50268;BME280;36153;50.960;6.220;2022-07-04T12:41:07;100985.97;;;30.86;25.17
50268;BME280;36153;50.960;6.220;2022-07-04T12:44:08;100980.06;;;29.95;25.94
50268;BME280;36153;50.960;6.220;2022-07-04T12:47:19;100984.44;;;29.82;26.08
50268;BME280;36153;50.960;6.220;2022-07-04T12:50:26;100987.41;;;29.77;27.12
50268;BME280;36153;50.960;6.220;2022-07-04T12:53:35;100984.63;;;30.78;25.89
50268;BME280;36153;50.960;6.220;2022-07-04T12:56:39;100983.38;;;31.11;24.82
50268;BME280;36153;50.960;6.220;2022-07-04T12:59:41;100985.34;;;30.95;25.27
50268;BME280;36153;50.960;6.220;2022-07-04T13:02:42;100986.78;;;30.73;25.09
50268;BME280;36153;50.960;6.220;2022-07-04T13:05:42;100982.25;;;30.74;26.05
50268;BME280;36153;50.960;6.220;2022-07-04T13:08:43;100986.75;;;30.32;27.25
50268;BME280;36153;50.960;6.220;2022-07-04T13:11:43;100984.56;;;30.09;28.35
50268;BME280;36153;50.960;6.220;2022-07-04T13:15:02;100976.16;;;31.78;27.08
50268;BME280;36153;50.960;6.220;2022-07-04T13:18:05;100973.91;;;32.47;23.67
50268;BME280;36153;50.960;6.220;2022-07-04T13:21:05;100981.44;;;31.67;23.88
50268;BME280;36153;50.960;6.220;2022-07-04T13:24:06;100976.16;;;30.85;25.84
50268;BME280;36153;50.960;6.220;2022-07-04T13:27:06;100976.09;;;30.30;26.78
50268;BME280;36153;50.960;6.220;2022-07-04T13:30:07;100978.84;;;30.43;27.29
50268;BME280;36153;50.960;6.220;2022-07-04T13:33:08;100980.31;;;30.20;26.96
50268;BME280;36153;50.960;6.220;2022-07-04T13:36:08;100976.00;;;30.32;27.25
50268;BME280;36153;50.960;6.220;2022-07-04T13:39:08;100973.41;;;30.30;27.14
50268;BME280;36153;50.960;6.220;2022-07-04T13:42:09;100977.31;;;30.53;27.09
50268;BME280;36153;50.960;6.220;2022-07-04T13:45:09;100971.66;;;31.12;25.64
50268;BME280;36153;50.960;6.220;2022-07-04T13:48:10;100969.97;;;31.37;25.61
50268;BME280;36153;50.960;6.220;2022-07-04T13:51:11;100969.34;;;31.98;26.14
50268;BME280;36153;50.960;6.220;2022-07-04T13:54:11;100974.63;;;32.49;25.18
50268;BME280;36153;50.960;6.220;2022-07-04T13:57:11;100967.69;;;33.31;24.10
50268;BME280;36153;50.960;6.220;2022-07-04T14:00:12;100969.31;;;33.09;24.30
50268;BME280;36153;50.960;6.220;2022-07-04T14:03:13;100969.72;;;33.63;22.82
50268;BME280;36153;50.960;6.220;2022-07-04T14:06:14;100965.44;;;32.28;23.44
50268;BME280;36153;50.960;6.220;2022-07-04T14:09:16;100961.06;;;31.88;24.65
50268;BME280;36153;50.960;6.220;2022-07-04T14:12:16;100960.28;;;31.47;25.27
50268;BME280;36153;50.960;6.220;2022-07-04T14:15:17;100955.19;;;31.04;25.85
50268;BME280;36153;50.960;6.220;2022-07-04T14:18:17;100959.50;;;30.92;25.55
50268;BME280;36153;50.960;6.220;2022-07-04T14:21:18;100951.94;;;31.78;25.24
50268;BME280;36153;50.960;6.220;2022-07-04T14:24:18;100957.88;;;32.33;24.73
50268;BME280;36153;50.960;6.220;2022-07-04T14:27:19;100949.38;;;32.13;23.43
50268;BME280;36153;50.960;6.220;2022-07-04T14:30:19;100958.66;;;30.92;24.76
50268;BME280;36153;50.960;6.220;2022-07-04T14:33:19;100947.59;;;31.88;24.69
50268;BME280;36153;50.960;6.220;2022-07-04T14:36:20;100950.50;;;32.48;23.21
50268;BME280;36153;50.960;6.220;2022-07-04T14:39:21;100947.63;;;31.75;25.12
50268;BME280;36153;50.960;6.220;2022-07-04T14:42:21;100947.78;;;32.24;25.21
50268;BME280;36153;50.960;6.220;2022-07-04T14:45:21;100941.53;;;32.10;25.50
50268;BME280;36153;50.960;6.220;2022-07-04T14:48:22;100940.44;;;32.26;24.14
50268;BME280;36153;50.960;6.220;2022-07-04T14:51:23;100924.25;;;33.23;22.95
50268;BME280;36153;50.960;6.220;2022-07-04T14:54:23;100924.09;;;33.71;22.98
50268;BME280;36153;50.960;6.220;2022-07-04T14:57:24;100927.59;;;33.38;22.37
50268;BME280;36153;50.960;6.220;2022-07-04T15:00:24;100931.28;;;32.53;23.79
50268;BME280;36153;50.960;6.220;2022-07-04T15:03:24;100921.38;;;32.53;24.23
50268;BME280;36153;50.960;6.220;2022-07-04T15:06:25;100919.25;;;32.94;25.14
50268;BME280;36153;50.960;6.220;2022-07-04T15:09:25;100918.16;;;32.24;23.84
50268;BME280;36153;50.960;6.220;2022-07-04T15:12:26;100916.38;;;31.34;24.73
50268;BME280;36153;50.960;6.220;2022-07-04T15:15:26;100912.28;;;31.41;25.51
50268;BME280;36153;50.960;6.220;2022-07-04T15:18:27;100904.69;;;32.24;23.87
50268;BME280;36153;50.960;6.220;2022-07-04T15:21:27;100896.66;;;32.35;24.24
50268;BME280;36153;50.960;6.220;2022-07-04T15:24:46;100902.97;;;32.47;24.42
50268;BME280;36153;50.960;6.220;2022-07-04T15:27:47;100905.63;;;32.60;23.05
50268;BME280;36153;50.960;6.220;2022-07-04T15:30:48;100912.28;;;31.15;25.23
50268;BME280;36153;50.960;6.220;2022-07-04T15:33:51;100900.72;;;31.01;25.28
50268;BME280;36153;50.960;6.220;2022-07-04T15:36:52;100898.50;;;32.59;22.98
50268;BME280;36153;50.960;6.220;2022-07-04T15:39:52;100895.81;;;32.59;23.26
50268;BME280;36153;50.960;6.220;2022-07-04T15:42:52;100894.25;;;32.67;22.99
50268;BME280;36153;50.960;6.220;2022-07-04T15:45:53;100888.38;;;32.98;22.33
50268;BME280;36153;50.960;6.220;2022-07-04T15:48:53;100901.41;;;33.15;22.96
50268;BME280;36153;50.960;6.220;2022-07-04T15:51:53;100886.34;;;32.77;23.13
50268;BME280;36153;50.960;6.220;2022-07-04T15:54:54;100881.66;;;32.68;23.98
50268;BME280;36153;50.960;6.220;2022-07-04T15:57:54;100889.13;;;32.40;22.24
50268;BME280;36153;50.960;6.220;2022-07-04T16:00:55;100883.13;;;32.72;21.13
50268;BME280;36153;50.960;6.220;2022-07-04T16:03:55;100887.38;;;31.65;23.25